sensor_id;sensor_type;location;lat;lon;timestamp;pressure;altitude;pressure_sealevel;temperature;humidity
8575;BME280;4325;42.520;27.448;2023-02-12T00:02:03;102237.03;;;-1.74;73.18
8575;BME280;4325;42.520;27.448;2023-02-12T00:04:30;102234.81;;;-1.79;71.85
8575;BME280;4325;42.520;27.448;2023-02-12T00:06:57;102230.78;;;-1.83;70.94
8575;BME280;4325;42.520;27.448;2023-02-12T00:09:25;102231.75;;;-1.84;69.74
8575;BME280;4325;42.520;27.448;2023-02-12T00:11:52;102244.19;;;-1.83;67.44
8575;BME280;4325;42.520;27.448;2023-02-12T00:14:19;102243.88;;;-1.80;67.92
8575;BME280;4325;42.520;27.448;2023-02-12T00:16:46;102236.16;;;-1.83;68.45
8575;BME280;4325;42.520;27.448;2023-02-12T00:19:12;102244.03;;;-1.81;68.98
8575;BME280;4325;42.520;27.448;2023-02-12T00:21:39;102239.13;;;-1.86;69.99
8575;BME280;4325;42.520;27.448;2023-02-12T00:24:06;102238.38;;;-1.96;69.85
8575;BME280;4325;42.520;27.448;2023-02-12T00:26:35;102241.97;;;-2.05;70.85
8575;BME280;4325;42.520;27.448;2023-02-12T00:29:02;102239.88;;;-2.11;71.00
8575;BME280;4325;42.520;27.448;2023-02-12T00:31:30;102233.31;;;-2.17;72.56
8575;BME280;4325;42.520;27.448;2023-02-12T00:33:58;102231.38;;;-2.24;73.48
8575;BME280;4325;42.520;27.448;2023-02-12T00:36:27;102236.44;;;-2.21;73.55
8575;BME280;4325;42.520;27.448;2023-02-12T00:38:55;102231.63;;;-2.18;73.69
8575;BME280;4325;42.520;27.448;2023-02-12T00:41:22;102229.91;;;-2.19;73.82
8575;BME280;4325;42.520;27.448;2023-02-12T00:43:51;102226.03;;;-2.24;74.16
8575;BME280;4325;42.520;27.448;2023-02-12T00:46:18;102233.00;;;-2.31;74.04
8575;BME280;4325;42.520;27.448;2023-02-12T00:48:45;102229.47;;;-2.32;74.47
8575;BME280;4325;42.520;27.448;2023-02-12T00:51:12;102221.88;;;-2.36;74.47
8575;BME280;4325;42.520;27.448;2023-02-12T00:53:39;102218.25;;;-2.45;74.44
8575;BME280;4325;42.520;27.448;2023-02-12T00:56:06;102227.03;;;-2.52;74.61
8575;BME280;4325;42.520;27.448;2023-02-12T00:58:33;102230.34;;;-2.58;74.73
8575;BME280;4325;42.520;27.448;2023-02-12T01:01:01;102221.34;;;-2.67;76.34
8575;BME280;4325;42.520;27.448;2023-02-12T01:03:28;102215.06;;;-2.76;78.71
8575;BME280;4325;42.520;27.448;2023-02-12T01:05:55;102211.69;;;-2.78;80.49
8575;BME280;4325;42.520;27.448;2023-02-12T01:08:22;102211.81;;;-2.79;84.49
8575;BME280;4325;42.520;27.448;2023-02-12T01:10:54;102208.28;;;-2.80;86.66
8575;BME280;4325;42.520;27.448;2023-02-12T01:13:22;102211.34;;;-2.75;88.88
8575;BME280;4325;42.520;27.448;2023-02-12T01:16:01;102200.63;;;-2.75;91.47
8575;BME280;4325;42.520;27.448;2023-02-12T01:18:28;102197.66;;;-2.72;94.25
8575;BME280;4325;42.520;27.448;2023-02-12T01:20:55;102189.47;;;-2.70;95.96
8575;BME280;4325;42.520;27.448;2023-02-12T01:23:23;102181.13;;;-2.67;96.25
8575;BME280;4325;42.520;27.448;2023-02-12T01:25:50;102180.16;;;-2.66;96.97
8575;BME280;4325;42.520;27.448;2023-02-12T01:28:17;102185.75;;;-2.59;96.60
8575;BME280;4325;42.520;27.448;2023-02-12T01:30:44;102180.78;;;-2.54;95.80
8575;BME280;4325;42.520;27.448;2023-02-12T01:33:12;102185.16;;;-2.53;94.59
8575;BME280;4325;42.520;27.448;2023-02-12T01:35:39;102178.72;;;-2.43;94.18
8575;BME280;4325;42.520;27.448;2023-02-12T01:38:06;102176.72;;;-2.41;93.13
8575;BME280;4325;42.520;27.448;2023-02-12T01:40:33;102178.78;;;-2.35;92.96
8575;BME280;4325;42.520;27.448;2023-02-12T01:43:01;102176.34;;;-2.28;91.25
8575;BME280;4325;42.520;27.448;2023-02-12T01:45:45;102184.47;;;-2.20;89.75
8575;BME280;4325;42.520;27.448;2023-02-12T01:48:16;102181.03;;;-2.13;88.02
8575;BME280;4325;42.520;27.448;2023-02-12T01:50:47;102185.31;;;-2.02;87.79
8575;BME280;4325;42.520;27.448;2023-02-12T01:53:16;102185.22;;;-1.92;87.25
8575;BME280;4325;42.520;27.448;2023-02-12T01:55:47;102184.00;;;-1.80;86.42
8575;BME280;4325;42.520;27.448;2023-02-12T01:58:15;102185.56;;;-1.70;85.57
8575;BME280;4325;42.520;27.448;2023-02-12T02:00:42;102181.41;;;-1.64;83.11
8575;BME280;4325;42.520;27.448;2023-02-12T02:03:10;102183.00;;;-1.54;82.84
8575;BME280;4325;42.520;27.448;2023-02-12T02:05:43;102190.47;;;-1.40;81.43
8575;BME280;4325;42.520;27.448;2023-02-12T02:08:11;102198.59;;;-1.31;81.07
8575;BME280;4325;42.520;27.448;2023-02-12T02:10:38;102197.94;;;-1.25;80.29
8575;BME280;4325;42.520;27.448;2023-02-12T02:13:05;102198.31;;;-1.20;78.09
8575;BME280;4325;42.520;27.448;2023-02-12T02:15:54;102191.94;;;-1.19;72.06
8575;BME280;4325;42.520;27.448;2023-02-12T02:18:26;102192.56;;;-1.25;70.63
8575;BME280;4325;42.520;27.448;2023-02-12T02:21:22;102203.63;;;-1.28;69.28
8575;BME280;4325;42.520;27.448;2023-02-12T02:24:32;102202.28;;;-1.33;66.50
8575;BME280;4325;42.520;27.448;2023-02-12T02:27:26;102206.91;;;-1.43;64.38
8575;BME280;4325;42.520;27.448;2023-02-12T02:33:12;102171.91;;;-1.59;66.46
8575;BME280;4325;42.520;27.448;2023-02-12T02:35:46;102192.78;;;-1.45;67.55
8575;BME280;4325;42.520;27.448;2023-02-12T02:38:23;102193.75;;;-1.54;64.68
8575;BME280;4325;42.520;27.448;2023-02-12T02:40:54;102192.34;;;-1.58;65.99
8575;BME280;4325;42.520;27.448;2023-02-12T02:43:27;102186.63;;;-1.63;65.81
8575;BME280;4325;42.520;27.448;2023-02-12T02:45:59;102191.84;;;-1.61;67.63
8575;BME280;4325;42.520;27.448;2023-02-12T02:48:34;102186.56;;;-1.71;65.86
8575;BME280;4325;42.520;27.448;2023-02-12T02:51:05;102180.94;;;-1.85;66.20
8575;BME280;4325;42.520;27.448;2023-02-12T02:53:38;102189.50;;;-1.82;66.53
8575;BME280;4325;42.520;27.448;2023-02-12T02:56:12;102189.78;;;-1.85;66.76
8575;BME280;4325;42.520;27.448;2023-02-12T02:58:42;102198.66;;;-1.92;67.11
8575;BME280;4325;42.520;27.448;2023-02-12T03:01:14;102196.75;;;-2.00;67.64
8575;BME280;4325;42.520;27.448;2023-02-12T03:03:48;102192.59;;;-2.12;68.31
8575;BME280;4325;42.520;27.448;2023-02-12T03:06:27;102197.59;;;-2.17;69.74
8575;BME280;4325;42.520;27.448;2023-02-12T03:08:58;102196.91;;;-2.19;70.72
8575;BME280;4325;42.520;27.448;2023-02-12T03:11:28;102198.19;;;-2.23;72.28
8575;BME280;4325;42.520;27.448;2023-02-12T03:13:58;102194.75;;;-2.16;73.00
8575;BME280;4325;42.520;27.448;2023-02-12T03:16:30;102199.63;;;-2.11;73.80
8575;BME280;4325;42.520;27.448;2023-02-12T03:19:02;102195.97;;;-2.10;74.26
8575;BME280;4325;42.520;27.448;2023-02-12T03:21:35;102189.97;;;-2.04;75.60
8575;BME280;4325;42.520;27.448;2023-02-12T03:24:09;102188.69;;;-2.00;78.66
8575;BME280;4325;42.520;27.448;2023-02-12T03:26:42;102180.94;;;-2.03;81.79
8575;BME280;4325;42.520;27.448;2023-02-12T03:29:10;102178.16;;;-2.11;83.86
8575;BME280;4325;42.520;27.448;2023-02-12T03:31:46;102171.16;;;-2.12;85.44
8575;BME280;4325;42.520;27.448;2023-02-12T03:34:25;102159.16;;;-2.00;85.75
8575;BME280;4325;42.520;27.448;2023-02-12T03:36:58;102157.84;;;-1.96;86.11
8575;BME280;4325;42.520;27.448;2023-02-12T03:39:30;102151.69;;;-1.88;86.96
8575;BME280;4325;42.520;27.448;2023-02-12T03:42:04;102162.59;;;-1.90;88.17
8575;BME280;4325;42.520;27.448;2023-02-12T03:44:45;102152.84;;;-1.91;88.58
8575;BME280;4325;42.520;27.448;2023-02-12T03:47:18;102151.81;;;-1.98;90.46
8575;BME280;4325;42.520;27.448;2023-02-12T03:49:52;102147.09;;;-1.78;99.56
8575;BME280;4325;42.520;27.448;2023-02-12T03:52:21;102146.53;;;-1.82;100.00
8575;BME280;4325;42.520;27.448;2023-02-12T03:54:48;102158.44;;;-1.84;98.37
8575;BME280;4325;42.520;27.448;2023-02-12T03:57:19;102153.31;;;-1.78;98.22
8575;BME280;4325;42.520;27.448;2023-02-12T03:59:47;102153.44;;;-1.79;97.61
8575;BME280;4325;42.520;27.448;2023-02-12T04:02:15;102153.31;;;-1.78;97.40
8575;BME280;4325;42.520;27.448;2023-02-12T04:04:44;102150.63;;;-1.78;97.82
8575;BME280;4325;42.520;27.448;2023-02-12T04:07:14;102152.97;;;-1.75;97.70
8575;BME280;4325;42.520;27.448;2023-02-12T04:09:42;102155.56;;;-1.65;97.62
8575;BME280;4325;42.520;27.448;2023-02-12T04:12:19;102164.81;;;-1.60;96.08
8575;BME280;4325;42.520;27.448;2023-02-12T04:14:53;102154.56;;;-1.64;94.88
8575;BME280;4325;42.520;27.448;2023-02-12T04:17:28;102151.78;;;-1.55;94.21
8575;BME280;4325;42.520;27.448;2023-02-12T04:20:06;102152.06;;;-1.58;93.87
8575;BME280;4325;42.520;27.448;2023-02-12T04:22:45;102152.06;;;-1.58;93.12
8575;BME280;4325;42.520;27.448;2023-02-12T04:25:20;102148.88;;;-1.61;93.03
8575;BME280;4325;42.520;27.448;2023-02-12T04:27:58;102158.13;;;-1.56;93.62
8575;BME280;4325;42.520;27.448;2023-02-12T04:30:31;102164.88;;;-1.52;93.32
8575;BME280;4325;42.520;27.448;2023-02-12T04:33:02;102165.41;;;-1.48;93.69
8575;BME280;4325;42.520;27.448;2023-02-12T04:35:32;102161.59;;;-1.38;94.16
8575;BME280;4325;42.520;27.448;2023-02-12T04:38:06;102164.34;;;-1.29;92.08
8575;BME280;4325;42.520;27.448;2023-02-12T04:40:37;102173.59;;;-1.24;89.48
8575;BME280;4325;42.520;27.448;2023-02-12T04:43:05;102180.50;;;-1.21;87.30
8575;BME280;4325;42.520;27.448;2023-02-12T04:45:33;102181.03;;;-1.18;85.18
8575;BME280;4325;42.520;27.448;2023-02-12T04:48:01;102183.91;;;-1.11;80.83
8575;BME280;4325;42.520;27.448;2023-02-12T04:50:37;102196.59;;;-0.96;72.18
8575;BME280;4325;42.520;27.448;2023-02-12T04:53:07;102193.47;;;-0.83;65.57
8575;BME280;4325;42.520;27.448;2023-02-12T04:55:34;102172.47;;;-0.80;62.53
8575;BME280;4325;42.520;27.448;2023-02-12T04:58:01;102198.94;;;-0.51;61.40
8575;BME280;4325;42.520;27.448;2023-02-12T05:00:28;102202.19;;;-0.39;58.60
8575;BME280;4325;42.520;27.448;2023-02-12T05:02:55;102199.50;;;-0.31;57.11
8575;BME280;4325;42.520;27.448;2023-02-12T05:05:22;102206.75;;;-0.32;55.95
8575;BME280;4325;42.520;27.448;2023-02-12T05:07:49;102206.56;;;-0.30;56.32
8575;BME280;4325;42.520;27.448;2023-02-12T05:10:17;102198.50;;;-0.30;56.12
8575;BME280;4325;42.520;27.448;2023-02-12T05:12:44;102213.78;;;-0.31;56.59
8575;BME280;4325;42.520;27.448;2023-02-12T05:15:11;102213.78;;;-0.31;56.51
8575;BME280;4325;42.520;27.448;2023-02-12T05:17:38;102219.16;;;-0.39;57.46
8575;BME280;4325;42.520;27.448;2023-02-12T05:20:06;102222.88;;;-0.40;58.20
8575;BME280;4325;42.520;27.448;2023-02-12T05:22:33;102223.53;;;-0.38;58.20
8575;BME280;4325;42.520;27.448;2023-02-12T05:24:59;102230.97;;;-0.32;58.78
8575;BME280;4325;42.520;27.448;2023-02-12T05:27:28;102228.59;;;-0.27;58.55
8575;BME280;4325;42.520;27.448;2023-02-12T05:29:54;102234.66;;;-0.33;57.79
8575;BME280;4325;42.520;27.448;2023-02-12T05:32:22;102242.19;;;-0.36;59.02
8575;BME280;4325;42.520;27.448;2023-02-12T05:34:49;102249.81;;;-0.24;60.04
8575;BME280;4325;42.520;27.448;2023-02-12T05:37:15;102240.41;;;-0.20;58.48
8575;BME280;4325;42.520;27.448;2023-02-12T05:39:42;102251.34;;;-0.13;59.46
8575;BME280;4325;42.520;27.448;2023-02-12T05:42:09;102255.75;;;0.04;60.08
8575;BME280;4325;42.520;27.448;2023-02-12T05:44:37;102253.41;;;0.17;59.14
8575;BME280;4325;42.520;27.448;2023-02-12T05:47:04;102264.22;;;0.33;59.28
8575;BME280;4325;42.520;27.448;2023-02-12T05:49:31;102251.94;;;0.39;58.61
8575;BME280;4325;42.520;27.448;2023-02-12T05:51:58;102260.00;;;0.47;58.60
8575;BME280;4325;42.520;27.448;2023-02-12T05:54:25;102262.03;;;0.53;60.18
8575;BME280;4325;42.520;27.448;2023-02-12T05:56:52;102265.72;;;0.44;58.35
8575;BME280;4325;42.520;27.448;2023-02-12T05:59:21;102267.91;;;0.24;60.00
8575;BME280;4325;42.520;27.448;2023-02-12T06:01:51;102280.03;;;0.28;61.94
8575;BME280;4325;42.520;27.448;2023-02-12T06:04:20;102279.16;;;0.20;64.01
8575;BME280;4325;42.520;27.448;2023-02-12T06:06:48;102276.47;;;0.20;64.34
8575;BME280;4325;42.520;27.448;2023-02-12T06:09:15;102271.09;;;0.12;62.82
8575;BME280;4325;42.520;27.448;2023-02-12T06:11:42;102272.41;;;0.08;63.25
8575;BME280;4325;42.520;27.448;2023-02-12T06:14:11;102276.81;;;0.09;64.23
8575;BME280;4325;42.520;27.448;2023-02-12T06:16:39;102282.41;;;0.31;63.41
8575;BME280;4325;42.520;27.448;2023-02-12T06:19:08;102284.06;;;0.24;64.43
8575;BME280;4325;42.520;27.448;2023-02-12T06:21:35;102288.78;;;0.14;67.51
8575;BME280;4325;42.520;27.448;2023-02-12T06:24:02;102288.56;;;-0.01;71.33
8575;BME280;4325;42.520;27.448;2023-02-12T06:26:29;102290.91;;;-0.06;73.48
8575;BME280;4325;42.520;27.448;2023-02-12T06:28:56;102286.91;;;0.07;73.49
8575;BME280;4325;42.520;27.448;2023-02-12T06:31:25;102284.06;;;0.16;71.67
8575;BME280;4325;42.520;27.448;2023-02-12T06:33:53;102280.88;;;0.37;70.96
8575;BME280;4325;42.520;27.448;2023-02-12T06:36:22;102287.78;;;0.47;68.06
8575;BME280;4325;42.520;27.448;2023-02-12T06:38:49;102285.94;;;0.64;65.70
8575;BME280;4325;42.520;27.448;2023-02-12T06:41:17;102295.84;;;0.88;60.89
8575;BME280;4325;42.520;27.448;2023-02-12T06:43:44;102303.41;;;1.08;58.11
8575;BME280;4325;42.520;27.448;2023-02-12T06:46:11;102303.53;;;1.31;58.00
8575;BME280;4325;42.520;27.448;2023-02-12T06:48:38;102298.59;;;1.34;58.15
8575;BME280;4325;42.520;27.448;2023-02-12T06:51:06;102297.88;;;1.02;59.23
8575;BME280;4325;42.520;27.448;2023-02-12T06:53:35;102294.84;;;0.81;61.01
8575;BME280;4325;42.520;27.448;2023-02-12T06:56:03;102302.44;;;0.85;61.36
8575;BME280;4325;42.520;27.448;2023-02-12T06:58:30;102296.03;;;0.94;62.06
8575;BME280;4325;42.520;27.448;2023-02-12T07:01:07;102293.28;;;1.02;62.54
8575;BME280;4325;42.520;27.448;2023-02-12T07:03:35;102298.00;;;1.16;62.20
8575;BME280;4325;42.520;27.448;2023-02-12T07:06:04;102292.22;;;1.27;62.12
8575;BME280;4325;42.520;27.448;2023-02-12T07:08:31;102301.63;;;1.40;62.06
8575;BME280;4325;42.520;27.448;2023-02-12T07:10:59;102294.97;;;1.58;62.27
8575;BME280;4325;42.520;27.448;2023-02-12T07:13:26;102292.03;;;1.76;60.65
8575;BME280;4325;42.520;27.448;2023-02-12T07:15:53;102306.47;;;1.91;60.33
8575;BME280;4325;42.520;27.448;2023-02-12T07:18:20;102299.19;;;2.22;60.92
8575;BME280;4325;42.520;27.448;2023-02-12T07:20:47;102306.72;;;2.57;58.67
8575;BME280;4325;42.520;27.448;2023-02-12T07:23:14;102305.63;;;2.66;56.67
8575;BME280;4325;42.520;27.448;2023-02-12T07:25:40;102306.53;;;2.82;56.09
8575;BME280;4325;42.520;27.448;2023-02-12T07:28:09;102298.53;;;3.03;53.40
8575;BME280;4325;42.520;27.448;2023-02-12T07:30:36;102297.25;;;3.13;52.48
8575;BME280;4325;42.520;27.448;2023-02-12T07:33:03;102304.84;;;3.47;51.76
8575;BME280;4325;42.520;27.448;2023-02-12T07:35:30;102303.41;;;3.80;49.39
8575;BME280;4325;42.520;27.448;2023-02-12T07:37:57;102298.53;;;3.90;48.52
8575;BME280;4325;42.520;27.448;2023-02-12T07:40:24;102296.81;;;3.89;48.55
8575;BME280;4325;42.520;27.448;2023-02-12T07:42:53;102293.88;;;3.84;49.26
8575;BME280;4325;42.520;27.448;2023-02-12T07:45:22;102301.97;;;3.99;50.20
8575;BME280;4325;42.520;27.448;2023-02-12T07:47:49;102304.06;;;3.68;52.47
8575;BME280;4325;42.520;27.448;2023-02-12T07:50:16;102303.25;;;3.67;53.31
8575;BME280;4325;42.520;27.448;2023-02-12T07:52:43;102302.19;;;3.83;52.83
8575;BME280;4325;42.520;27.448;2023-02-12T07:55:10;102305.94;;;4.18;52.08
8575;BME280;4325;42.520;27.448;2023-02-12T07:57:37;102308.34;;;4.27;50.98
8575;BME280;4325;42.520;27.448;2023-02-12T08:00:05;102303.13;;;4.26;51.17
8575;BME280;4325;42.520;27.448;2023-02-12T08:02:33;102299.63;;;4.53;50.04
8575;BME280;4325;42.520;27.448;2023-02-12T08:05:00;102294.19;;;4.53;47.88
8575;BME280;4325;42.520;27.448;2023-02-12T08:07:27;102300.78;;;4.44;47.41
8575;BME280;4325;42.520;27.448;2023-02-12T08:09:53;102296.66;;;4.48;46.60
8575;BME280;4325;42.520;27.448;2023-02-12T08:12:20;102290.59;;;4.67;46.74
8575;BME280;4325;42.520;27.448;2023-02-12T08:14:48;102290.44;;;4.96;46.60
8575;BME280;4325;42.520;27.448;2023-02-12T08:17:15;102300.13;;;5.40;46.04
8575;BME280;4325;42.520;27.448;2023-02-12T08:19:43;102290.25;;;5.73;44.56
8575;BME280;4325;42.520;27.448;2023-02-12T08:22:09;102295.38;;;5.89;43.72
8575;BME280;4325;42.520;27.448;2023-02-12T08:24:36;102294.19;;;5.98;43.60
8575;BME280;4325;42.520;27.448;2023-02-12T08:27:04;102304.81;;;5.52;43.83
8575;BME280;4325;42.520;27.448;2023-02-12T08:29:31;102297.13;;;5.28;44.16
8575;BME280;4325;42.520;27.448;2023-02-12T08:31:59;102304.34;;;5.49;44.04
8575;BME280;4325;42.520;27.448;2023-02-12T08:34:28;102306.66;;;6.46;43.40
8575;BME280;4325;42.520;27.448;2023-02-12T08:36:57;102303.06;;;8.08;41.15
8575;BME280;4325;42.520;27.448;2023-02-12T08:39:25;102299.63;;;9.38;39.11
8575;BME280;4325;42.520;27.448;2023-02-12T08:41:53;102304.78;;;9.64;39.42
8575;BME280;4325;42.520;27.448;2023-02-12T08:44:20;102299.44;;;10.12;36.84
8575;BME280;4325;42.520;27.448;2023-02-12T08:46:48;102303.78;;;11.48;35.43
8575;BME280;4325;42.520;27.448;2023-02-12T08:49:18;102302.50;;;13.20;32.48
8575;BME280;4325;42.520;27.448;2023-02-12T08:51:47;102296.53;;;13.83;30.73
8575;BME280;4325;42.520;27.448;2023-02-12T08:54:17;102295.53;;;13.89;30.33
8575;BME280;4325;42.520;27.448;2023-02-12T08:56:45;102303.97;;;14.04;30.30
8575;BME280;4325;42.520;27.448;2023-02-12T08:59:13;102306.53;;;13.89;29.14
8575;BME280;4325;42.520;27.448;2023-02-12T09:01:40;102306.97;;;14.03;29.20
8575;BME280;4325;42.520;27.448;2023-02-12T09:04:17;102308.63;;;14.25;28.74
8575;BME280;4325;42.520;27.448;2023-02-12T09:06:45;102308.22;;;14.60;28.62
8575;BME280;4325;42.520;27.448;2023-02-12T09:09:14;102305.56;;;15.39;27.28
8575;BME280;4325;42.520;27.448;2023-02-12T09:11:42;102310.91;;;15.45;26.82
8575;BME280;4325;42.520;27.448;2023-02-12T09:14:11;102299.94;;;14.92;26.75
8575;BME280;4325;42.520;27.448;2023-02-12T09:16:39;102307.56;;;15.90;26.54
8575;BME280;4325;42.520;27.448;2023-02-12T09:19:07;102301.69;;;14.98;26.92
8575;BME280;4325;42.520;27.448;2023-02-12T09:21:34;102313.25;;;15.32;27.40
8575;BME280;4325;42.520;27.448;2023-02-12T09:24:01;102308.59;;;15.00;27.47
8575;BME280;4325;42.520;27.448;2023-02-12T09:26:30;102310.09;;;13.68;28.26
8575;BME280;4325;42.520;27.448;2023-02-12T09:28:57;102307.78;;;12.93;29.11
8575;BME280;4325;42.520;27.448;2023-02-12T09:31:25;102298.03;;;12.13;30.21
8575;BME280;4325;42.520;27.448;2023-02-12T09:33:53;102301.19;;;13.82;28.98
8575;BME280;4325;42.520;27.448;2023-02-12T09:36:20;102311.31;;;15.32;26.97
8575;BME280;4325;42.520;27.448;2023-02-12T09:38:48;102305.63;;;16.63;25.11
8575;BME280;4325;42.520;27.448;2023-02-12T09:41:33;102303.44;;;18.29;24.11
8575;BME280;4325;42.520;27.448;2023-02-12T09:44:08;102297.59;;;21.44;21.99
8575;BME280;4325;42.520;27.448;2023-02-12T09:46:42;102304.97;;;20.84;21.47
8575;BME280;4325;42.520;27.448;2023-02-12T09:49:18;102297.41;;;22.35;20.53
8575;BME280;4325;42.520;27.448;2023-02-12T09:51:49;102296.91;;;24.06;19.33
8575;BME280;4325;42.520;27.448;2023-02-12T09:54:20;102291.94;;;25.74;18.26
8575;BME280;4325;42.520;27.448;2023-02-12T09:56:53;102282.75;;;27.96;16.37
8575;BME280;4325;42.520;27.448;2023-02-12T09:59:26;102281.22;;;30.24;15.01
8575;BME280;4325;42.520;27.448;2023-02-12T10:01:56;102281.38;;;31.65;13.99
8575;BME280;4325;42.520;27.448;2023-02-12T10:04:24;102284.50;;;30.60;13.73
8575;BME280;4325;42.520;27.448;2023-02-12T10:07:02;102292.56;;;29.61;14.48
8575;BME280;4325;42.520;27.448;2023-02-12T10:09:46;102282.72;;;30.18;14.07
8575;BME280;4325;42.520;27.448;2023-02-12T10:12:24;102283.72;;;31.17;13.28
8575;BME280;4325;42.520;27.448;2023-02-12T10:15:16;102281.28;;;31.84;12.83
8575;BME280;4325;42.520;27.448;2023-02-12T10:17:48;102285.63;;;33.16;12.23
8575;BME280;4325;42.520;27.448;2023-02-12T10:23:40;102283.75;;;34.97;10.97
8575;BME280;4325;42.520;27.448;2023-02-12T10:26:18;102285.59;;;36.11;10.71
8575;BME280;4325;42.520;27.448;2023-02-12T10:28:48;102289.63;;;36.24;10.41
8575;BME280;4325;42.520;27.448;2023-02-12T10:31:20;102285.56;;;36.22;10.36
8575;BME280;4325;42.520;27.448;2023-02-12T10:33:50;102283.13;;;35.89;10.18
8575;BME280;4325;42.520;27.448;2023-02-12T10:36:28;102293.50;;;34.82;10.41
8575;BME280;4325;42.520;27.448;2023-02-12T10:39:01;102298.09;;;34.36;10.99
8575;BME280;4325;42.520;27.448;2023-02-12T10:41:30;102304.63;;;34.40;10.69
8575;BME280;4325;42.520;27.448;2023-02-12T10:43:59;102292.59;;;34.64;10.61
8575;BME280;4325;42.520;27.448;2023-02-12T10:46:28;102289.78;;;34.78;10.57
8575;BME280;4325;42.520;27.448;2023-02-12T10:48:57;102294.25;;;34.72;10.46
8575;BME280;4325;42.520;27.448;2023-02-12T10:51:44;102307.19;;;33.57;11.23
8575;BME280;4325;42.520;27.448;2023-02-12T10:54:35;102297.34;;;32.25;11.83
8575;BME280;4325;42.520;27.448;2023-02-12T10:57:10;102285.91;;;32.18;11.38
8575;BME280;4325;42.520;27.448;2023-02-12T10:59:39;102293.22;;;32.19;11.71
8575;BME280;4325;42.520;27.448;2023-02-12T11:02:23;102295.53;;;32.10;11.75
8575;BME280;4325;42.520;27.448;2023-02-12T11:04:50;102299.75;;;32.23;11.94
8575;BME280;4325;42.520;27.448;2023-02-12T11:07:18;102298.94;;;32.23;11.94
8575;BME280;4325;42.520;27.448;2023-02-12T11:09:47;102298.84;;;32.72;11.53
8575;BME280;4325;42.520;27.448;2023-02-12T11:12:27;102298.59;;;33.98;10.99
8575;BME280;4325;42.520;27.448;2023-02-12T11:14:59;102287.13;;;35.28;10.49
8575;BME280;4325;42.520;27.448;2023-02-12T11:17:32;102292.91;;;35.56;10.46
8575;BME280;4325;42.520;27.448;2023-02-12T11:22:52;102299.59;;;37.07;9.63
8575;BME280;4325;42.520;27.448;2023-02-12T11:25:21;102284.75;;;39.53;8.77
8575;BME280;4325;42.520;27.448;2023-02-12T11:28:00;102288.66;;;39.89;8.37
8575;BME280;4325;42.520;27.448;2023-02-12T11:30:29;102291.78;;;38.58;9.16
8575;BME280;4325;42.520;27.448;2023-02-12T11:33:14;102303.09;;;35.71;10.09
8575;BME280;4325;42.520;27.448;2023-02-12T11:35:48;102281.34;;;31.87;12.42
8575;BME280;4325;42.520;27.448;2023-02-12T11:38:23;102302.84;;;28.70;14.49
8575;BME280;4325;42.520;27.448;2023-02-12T11:40:54;102302.72;;;26.31;15.93
8575;BME280;4325;42.520;27.448;2023-02-12T11:43:21;102304.97;;;25.07;17.33
8575;BME280;4325;42.520;27.448;2023-02-12T11:45:52;102307.47;;;23.70;18.27
8575;BME280;4325;42.520;27.448;2023-02-12T11:48:23;102306.78;;;22.89;19.01
8575;BME280;4325;42.520;27.448;2023-02-12T11:50:52;102304.34;;;22.74;19.12
8575;BME280;4325;42.520;27.448;2023-02-12T11:53:23;102301.31;;;22.48;19.49
8575;BME280;4325;42.520;27.448;2023-02-12T11:55:56;102304.88;;;21.99;20.43
8575;BME280;4325;42.520;27.448;2023-02-12T11:58:25;102311.19;;;21.45;20.82
8575;BME280;4325;42.520;27.448;2023-02-12T12:01:02;102306.84;;;20.88;21.37
8575;BME280;4325;42.520;27.448;2023-02-12T12:03:34;102315.75;;;20.53;21.96
8575;BME280;4325;42.520;27.448;2023-02-12T12:06:06;102319.97;;;20.32;22.35
8575;BME280;4325;42.520;27.448;2023-02-12T12:08:39;102312.72;;;20.31;22.06
8575;BME280;4325;42.520;27.448;2023-02-12T12:11:11;102322.78;;;19.80;22.58
8575;BME280;4325;42.520;27.448;2023-02-12T12:13:45;102312.91;;;19.06;23.23
8575;BME280;4325;42.520;27.448;2023-02-12T12:16:21;102316.06;;;18.56;24.28
8575;BME280;4325;42.520;27.448;2023-02-12T12:19:13;102318.59;;;17.83;25.07
8575;BME280;4325;42.520;27.448;2023-02-12T12:22:03;102327.50;;;16.94;26.37
8575;BME280;4325;42.520;27.448;2023-02-12T12:24:38;102323.97;;;16.17;27.73
8575;BME280;4325;42.520;27.448;2023-02-12T12:27:15;102331.72;;;15.63;28.48
8575;BME280;4325;42.520;27.448;2023-02-12T12:30:18;102332.13;;;15.08;29.40
8575;BME280;4325;42.520;27.448;2023-02-12T12:32:51;102336.88;;;14.59;30.64
8575;BME280;4325;42.520;27.448;2023-02-12T12:35:24;102334.44;;;14.19;31.32
8575;BME280;4325;42.520;27.448;2023-02-12T12:38:01;102342.63;;;13.71;32.43
8575;BME280;4325;42.520;27.448;2023-02-12T12:40:43;102359.50;;;13.24;33.42
8575;BME280;4325;42.520;27.448;2023-02-12T12:43:13;102364.28;;;12.84;33.78
8575;BME280;4325;42.520;27.448;2023-02-12T12:46:02;102366.34;;;12.49;34.46
8575;BME280;4325;42.520;27.448;2023-02-12T12:51:39;102374.16;;;11.77;35.64
8575;BME280;4325;42.520;27.448;2023-02-12T12:54:23;102385.09;;;11.54;36.60
8575;BME280;4325;42.520;27.448;2023-02-12T12:56:58;102386.75;;;11.32;36.83
8575;BME280;4325;42.520;27.448;2023-02-12T13:02:54;102404.22;;;11.08;38.12
8575;BME280;4325;42.520;27.448;2023-02-12T13:08:49;102403.06;;;10.86;38.79
8575;BME280;4325;42.520;27.448;2023-02-12T13:11:30;102405.19;;;10.72;39.29
8575;BME280;4325;42.520;27.448;2023-02-12T13:14:07;102406.09;;;10.66;39.77
8575;BME280;4325;42.520;27.448;2023-02-12T13:16:44;102422.88;;;10.58;40.14
8575;BME280;4325;42.520;27.448;2023-02-12T13:19:16;102417.44;;;10.51;40.27
8575;BME280;4325;42.520;27.448;2023-02-12T13:21:50;102427.28;;;10.41;40.43
8575;BME280;4325;42.520;27.448;2023-02-12T13:24:26;102437.00;;;10.37;41.67
8575;BME280;4325;42.520;27.448;2023-02-12T13:26:59;102437.25;;;10.35;44.49
8575;BME280;4325;42.520;27.448;2023-02-12T13:29:31;102446.41;;;10.29;43.89
8575;BME280;4325;42.520;27.448;2023-02-12T13:32:04;102443.72;;;10.23;42.43
8575;BME280;4325;42.520;27.448;2023-02-12T13:34:33;102445.59;;;10.22;41.68
8575;BME280;4325;42.520;27.448;2023-02-12T13:37:03;102464.31;;;10.25;41.44
8575;BME280;4325;42.520;27.448;2023-02-12T13:39:35;102464.78;;;10.22;41.81
8575;BME280;4325;42.520;27.448;2023-02-12T13:42:16;102475.59;;;10.17;42.03